Monday, October 16, 2017, 7:34 PM CDT
Back to Local

KEWK, Newton, Newton City/county Airport

Location: Newton, KS, United States Lat: 38.05
Local Time: 7:34 PM CDT ( 0:34 GMT) Lon: -97.283
Time Zone: US/Central Elev: 1532 ft

Show me the last for .
Show Decoded

2017-10-16 18:56 METAR KEWK 162356Z AUTO 17009KT 10SM CLR 16/04 A3024 RMK AO2 SLP238 6////
                 T01560044 10200 20156 57012 PNO $ =
2017-10-16 17:56 METAR KEWK 162256Z AUTO 19012KT 10SM CLR 18/03 A3025 RMK AO2 SLP240 T01830033
                 PNO $ =
2017-10-16 16:56 METAR KEWK 162156Z AUTO 19012KT 10SM CLR 19/04 A3026 RMK AO2 SLP244 T01940044
                 PNO $ =
2017-10-16 15:56 METAR KEWK 162056Z AUTO 20014G19KT 10SM CLR 20/03 A3027 RMK AO2 SLP247 6////
                 T02000033 56033 PNO $ =
2017-10-16 14:56 METAR KEWK 161956Z AUTO 21014G20KT 10SM CLR 20/04 A3030 RMK AO2 SLP257 T02000039
                 PNO $ =
2017-10-16 13:56 METAR KEWK 161856Z AUTO 20015KT 10SM CLR 19/04 A3034 RMK AO2 SLP270 T01940039
                 PNO $ =
2017-10-16 12:56 METAR KEWK 161756Z AUTO 19011KT 10SM CLR 18/06 A3037 RMK AO2 SLP282 6////
                 T01830056 10189 20050 58013 PNO $ =
2017-10-16 11:56 METAR KEWK 161656Z AUTO 20013KT 10SM CLR 17/05 A3040 RMK AO2 SLP291 T01720050
                 PNO $ =
2017-10-16 10:56 METAR KEWK 161556Z AUTO 21012KT 10SM CLR 15/04 A3041 RMK AO2 SLP297 T01500039
                 PNO $ =
2017-10-16 09:56 METAR KEWK 161456Z AUTO 21012KT 10SM CLR 13/04 A3042 RMK AO2 SLP298 6////
                 T01280044 53003 PNO $ =
2017-10-16 08:56 METAR KEWK 161356Z AUTO 21008KT 10SM CLR 09/03 A3041 RMK AO2 SLP298 T00940033
                 PNO $ =
2017-10-16 07:56 METAR KEWK 161256Z AUTO 20006KT 10SM CLR 05/02 A3040 RMK AO2 SLP298 T00500017
                 PNO $ =
2017-10-16 06:56 METAR KEWK 161156Z AUTO 21006KT 10SM CLR 06/02 A3041 RMK AO2 SLP298 6//// 7////
                 T00610017 10089 20056 53001 PNO $ =
2017-10-16 05:56 METAR KEWK 161056Z AUTO 23007KT 10SM CLR 07/02 A3040 RMK AO2 SLP292 T00720017
                 PNO $ =
2017-10-16 04:56 METAR KEWK 160956Z AUTO 24006KT 10SM CLR 07/02 A3040 RMK AO2 SLP293 T00720017
                 PNO $ =
2017-10-16 03:56 METAR KEWK 160856Z AUTO 24006KT 10SM CLR 07/02 A3040 RMK AO2 SLP294 6////
                 T00720022 50001 PNO $ =
2017-10-16 02:56 METAR KEWK 160756Z AUTO 23005KT 10SM CLR 06/03 A3041 RMK AO2 SLP297 T00560028
                 PNO $ =
2017-10-16 01:56 METAR KEWK 160656Z AUTO 25005KT 10SM CLR 07/02 A3041 RMK AO2 SLP297 T00670022
                 PNO $ =
2017-10-16 00:56 METAR KEWK 160556Z AUTO 20004KT 10SM CLR 08/02 A3040 RMK AO2 SLP293 6////
                 T00830017 10128 20083 58001 PNO $ =
2017-10-15 23:56 METAR KEWK 160456Z AUTO 17004KT 10SM CLR 09/02 A3040 RMK AO2 SLP294 T00890017
                 401610056 PNO $ =
2017-10-15 22:56 METAR KEWK 160356Z AUTO 17004KT 10SM CLR 09/03 A3041 RMK AO2 SLP297 T00890028
                 PNO $ =
2017-10-15 21:56 METAR KEWK 160256Z AUTO 00000KT 10SM CLR 10/02 A3040 RMK AO2 SLP296 6////
                 T01000017 51007 PNO $ =
2017-10-15 20:56 METAR KEWK 160156Z AUTO 00000KT 10SM CLR 11/02 A3040 RMK AO2 SLP296 T01060022
                 PNO $ =
2017-10-15 19:56 METAR KEWK 160056Z AUTO 35003KT 10SM CLR 12/02 A3039 RMK AO2 SLP293 T01170017
                 PNO $ =

Support USWX by starting your Amazon purchase here.